Latest Weather Observations for Dartmoor

IDV60801

Issued at 6:02 pm EST Sunday 2 August 2015 (issued every 30 minutes, with the page automatically refreshed every 10 minutes)

About weather observations | Map of weather stations | Latest weather observations for VIC | Other Formats
Station Details ID: 090194 Name: DARTMOOR Lat: -37.92 Lon: 141.26 Height: 51.0 m
Data from the previous 72 hours. | See also: Recent months at Dartmoor
Date/Time
EST
Temp
°C
App
Temp
°C
Dew
Point
Rel
Hum
%
Delta-T
°C
Wind Press
QNH
hPa
Press
MSL
hPa
Rain
since 9 am
mm
Dir
 
Spd
km/h
Gust
km/h
Spd
kts
Gust
kts
02/06:00pm 8.2 - - - - WNW 13 22 7 12 1012.8 1012.8 2.4
02/05:30pm 8.7 - - - - WNW 20 32 11 17 1012.6 1012.6 2.4
02/05:00pm 9.1 - - - - WNW 17 32 9 17 1012.1 1012.1 2.4
02/04:30pm 9.2 - - - - W 11 19 6 10 1012.1 1012.1 2.0
02/04:00pm 9.3 - - - - W 17 28 9 15 1012.0 1012.0 2.0
02/03:30pm 9.7 - - - - WNW 26 43 14 23 1011.9 1011.9 1.8
02/03:00pm 9.9 - - - - W 17 26 9 14 1011.6 1011.6 1.6
02/02:30pm 9.4 - - - - WSW 28 50 15 27 1011.4 1011.4 1.4
02/02:26pm 9.7 - - - - WSW 24 48 13 26 1011.3 1011.3 1.4
02/02:00pm 10.6 - - - - WNW 26 43 14 23 1010.8 1010.8 1.2
02/01:30pm 10.1 - - - - W 26 41 14 22 1011.1 1011.1 1.0
02/01:02pm 12.1 - - - - WNW 32 52 17 28 1010.9 1010.9 0.0
02/01:00pm 12.2 - - - - WNW 30 46 16 25 1010.9 1010.9 0.0
02/12:30pm 12.3 - - - - WNW 30 52 16 28 1011.4 1011.4 0.0
02/12:00pm 11.8 - - - - WNW 28 46 15 25 1011.7 1011.7 0.0
02/11:58am 11.7 - - - - WNW 28 46 15 25 1011.8 1011.8 0.0
02/11:30am 11.1 - - - - NW 26 41 14 22 1012.1 1012.1 0.0
02/11:00am 10.3 - - - - NW 24 33 13 18 1012.5 1012.5 0.0
02/10:30am 9.8 - - - - NW 22 43 12 23 1012.5 1012.5 0.0
02/10:00am 9.3 - - - - NNW 22 32 12 17 1012.6 1012.6 0.0
02/09:30am 8.4 - - - - NNW 22 37 12 20 1012.6 1012.6 0.0
02/09:00am 8.0 - - - - NNW 20 32 11 17 1012.8 1012.8 0.0
02/08:30am 6.9 - - - - NNW 20 32 11 17 1012.9 1012.9 0.0
02/08:00am 6.4 - - - - NNW 17 24 9 13 1013.1 1013.1 0.0
02/07:30am 6.2 - - - - NNW 19 28 10 15 1012.8 1012.8 0.0
02/07:00am 6.4 - - - - NNW 19 24 10 13 1012.6 1012.6 0.0
02/06:30am 6.1 - - - - NNW 20 30 11 16 1012.8 1012.8 0.0
02/06:00am 6.2 - - - - NNW 15 22 8 12 1013.0 1013.0 0.0
02/05:30am 6.5 - - - - NW 17 24 9 13 1013.1 1013.1 0.0
02/05:00am 6.0 - - - - NNW 17 24 9 13 1013.4 1013.5 0.0
02/04:30am 6.3 - - - - NNW 17 22 9 12 1013.6 1013.7 0.0
02/04:00am 6.5 - - - - NW 15 20 8 11 1013.9 1014.0 0.0
02/03:30am 6.4 - - - - NW 17 24 9 13 1014.1 1014.2 0.0
02/03:00am 5.8 - - - - NNW 13 19 7 10 1014.4 1014.5 0.0
02/02:30am 5.3 - - - - NNW 7 11 4 6 1014.7 1014.8 0.0
02/02:00am 5.8 - - - - NNW 9 13 5 7 1014.7 1014.8 0.0
02/01:30am 6.7 - - - - NNW 11 13 6 7 1015.0 1015.1 0.0
02/01:00am 7.0 - - - - NNW 13 19 7 10 1015.3 1015.4 0.0
02/12:30am 6.9 - - - - NNW 9 13 5 7 1015.4 1015.5 0.0
02/12:00am 6.8 - - - - N 13 17 7 9 1015.6 1015.7 0.0
 
Date/Time
EST
Temp
°C
App
Temp
°C
Dew
Point
Rel
Hum
%
Delta-T
°C
Wind Press
QNH
hPa
Press
MSL
hPa
Rain
since 9 am
mm
Dir
 
Spd
km/h
Gust
km/h
Spd
kts
Gust
kts
01/11:30pm 6.7 - - - - N 9 15 5 8 1015.7 1015.8 0.0
01/11:00pm 6.4 - - - - NNW 7 11 4 6 1016.0 1016.1 0.0
01/10:30pm 6.3 - - - - NNW 9 11 5 6 1016.2 1016.3 0.0
01/10:00pm 6.2 - - - - NNW 7 11 4 6 1016.2 1016.3 0.0
01/09:30pm 6.5 - - - - NW 6 7 3 4 1016.2 1016.3 0.0
01/09:00pm 6.2 - - - - NW 6 7 3 4 1016.2 1016.3 0.0
01/08:30pm 6.3 - - - - NW 6 6 3 3 1016.2 1016.3 0.0
01/08:00pm 6.7 - - - - WNW 4 4 2 2 1016.1 1016.2 0.0
01/07:30pm 7.1 - - - - NNW 4 6 2 3 1016.2 1016.3 0.0
01/07:00pm 7.4 - - - - NW 6 9 3 5 1015.9 1016.0 0.0
01/06:30pm 7.4 - - - - WNW 4 4 2 2 1015.8 1015.9 0.0
01/06:00pm 8.0 - - - - W 4 6 2 3 1015.7 1015.8 0.0
01/05:30pm 8.8 - - - - WNW 6 7 3 4 1015.6 1015.7 0.0
01/05:00pm 9.2 - - - - W 6 9 3 5 1015.4 1015.5 0.0
01/04:30pm 9.6 - - - - WNW 7 9 4 5 1015.4 1015.5 0.0
01/04:00pm 10.1 - - - - W 6 9 3 5 1015.2 1015.3 0.0
01/03:30pm 10.0 - - - - WSW 7 11 4 6 1015.1 1015.2 0.0
01/03:00pm 10.6 - - - - W 13 17 7 9 1014.7 1014.8 0.0
01/02:30pm 10.7 - - - - W 11 17 6 9 1014.8 1014.9 0.0
01/02:00pm 10.4 - - - - W 11 17 6 9 1015.1 1015.2 0.0
01/01:30pm 10.2 - - - - WSW 11 19 6 10 1015.1 1015.2 0.0
01/01:00pm 11.5 - - - - W 9 15 5 8 1015.2 1015.3 0.0
01/12:30pm 11.0 - - - - W 11 20 6 11 1015.6 1015.7 0.0
01/12:00pm 10.5 - - - - WSW 13 20 7 11 1015.7 1015.8 0.0
01/11:30am 10.0 - - - - WSW 11 19 6 10 1015.7 1015.8 0.0
01/11:00am 9.3 - - - - WNW 6 9 3 5 1015.4 1015.5 0.0
01/10:30am 8.2 - - - - NW 7 11 4 6 1015.4 1015.5 0.0
01/10:00am 7.5 - - - - W 4 7 2 4 1015.2 1015.3 0.0
01/09:30am 6.6 - - - - NW 6 7 3 4 1015.0 1015.1 0.0
01/09:00am 6.6 - - - - WNW 6 7 3 4 1014.7 1014.8 2.0
01/08:30am 6.7 - - - - W 6 9 3 5 1014.0 1014.1 2.0
01/08:00am 6.5 - - - - W 7 9 4 5 1013.3 1013.4 2.0
01/07:30am 7.0 - - - - W 6 7 3 4 1012.8 1012.9 2.0
01/07:00am 7.4 - - - - WNW 7 11 4 6 1012.4 1012.5 2.0
01/06:30am 7.5 - - - - WNW 7 9 4 5 1011.7 1011.8 2.0
01/06:00am 7.6 - - - - CALM 0 0 0 0 1011.0 1011.0 2.0
01/05:30am 8.0 - - - - SW 9 15 5 8 1011.0 1011.0 2.0
01/05:00am 8.3 - - - - SW 20 32 11 17 1010.5 1010.5 1.8
01/04:30am 8.8 - - - - SW 24 37 13 20 1009.8 1009.8 1.6
01/04:00am 9.9 - - - - SW 20 41 11 22 1009.1 1009.1 1.2
01/03:30am 10.9 - - - - NW 24 35 13 19 1008.4 1008.4 0.6
01/03:00am 12.0 - - - - NNW 28 48 15 26 1007.4 1007.5 0.0
01/02:58am 12.1 - - - - NNW 28 48 15 26 1007.4 1007.5 0.0
01/02:30am 12.1 - - - - NNW 22 35 12 19 1007.3 1007.4 0.0
01/02:00am 12.2 - - - - NNW 24 35 13 19 1007.5 1007.6 0.0
01/01:30am 11.9 - - - - N 20 32 11 17 1007.6 1007.7 0.0
01/01:00am 11.5 - - - - N 20 32 11 17 1008.1 1008.1 0.0
01/12:30am 11.3 - - - - N 20 32 11 17 1008.7 1008.7 0.0
01/12:00am 10.8 - - - - N 17 28 9 15 1009.1 1009.1 0.0
 
Date/Time
EST
Temp
°C
App
Temp
°C
Dew
Point
Rel
Hum
%
Delta-T
°C
Wind Press
QNH
hPa
Press
MSL
hPa
Rain
since 9 am
mm
Dir
 
Spd
km/h
Gust
km/h
Spd
kts
Gust
kts
31/11:30pm 10.4 - - - - N 20 35 11 19 1009.4 1009.4 0.0
31/11:00pm 10.0 - - - - N 19 30 10 16 1010.1 1010.1 0.0
31/10:30pm 9.8 - - - - N 20 30 11 16 1010.7 1010.7 0.0
31/10:00pm 9.7 - - - - N 20 30 11 16 1011.0 1011.0 0.0
31/09:30pm 9.5 - - - - N 17 30 9 16 1011.8 1011.9 0.0
31/09:00pm 9.4 - - - - N 17 24 9 13 1011.8 1011.9 0.0
31/08:30pm 9.4 - - - - N 15 22 8 12 1012.3 1012.4 0.0
31/08:00pm 9.3 - - - - N 13 17 7 9 1012.2 1012.3 0.0
31/07:30pm 9.4 - - - - N 13 20 7 11 1013.1 1013.2 0.0
31/07:00pm 9.3 - - - - N 13 19 7 10 1013.8 1013.9 0.0
31/06:30pm 9.3 - - - - N 13 20 7 11 1013.9 1014.0 0.0
31/06:00pm 9.3 - - - - N 15 20 8 11 1013.8 1013.9 0.0
31/05:30pm 9.3 - - - - NNW 15 24 8 13 1014.7 1014.8 0.0
31/05:00pm 9.5 - - - - NNW 19 28 10 15 1014.9 1015.0 0.0
31/04:30pm 9.6 - - - - NNW 17 32 9 17 1015.0 1015.1 0.0
31/04:00pm 10.4 - - - - NNW 19 28 10 15 1014.8 1014.9 0.0
31/03:30pm 10.1 - - - - NNW 17 24 9 13 1015.2 1015.3 0.0
31/03:00pm 10.6 - - - - NNW 19 28 10 15 1015.0 1015.1 0.0
31/02:30pm 10.8 - - - - NNW 20 30 11 16 1015.6 1015.7 0.0
31/02:00pm 10.3 - - - - NNW 22 33 12 18 1016.4 1016.5 0.0
31/01:30pm 10.1 - - - - NNW 20 30 11 16 1016.8 1016.9 0.0
31/01:00pm 10.2 - - - - NNW 20 30 11 16 1017.6 1017.7 0.0
31/12:30pm 9.7 - - - - NNW 20 32 11 17 1018.4 1018.5 0.0
31/12:00pm 9.8 - - - - NNW 20 35 11 19 1019.2 1019.3 0.0
31/11:30am 10.1 - - - - NNW 15 24 8 13 1019.6 1019.7 0.0
31/11:00am 9.9 - - - - N 11 19 6 10 1020.0 1020.1 0.0
31/10:30am 8.6 - - - - N 13 19 7 10 1020.3 1020.4 0.0
31/10:00am 7.9 - - - - NNW 9 15 5 8 1020.4 1020.5 0.0
31/09:30am 6.8 - - - - N 11 17 6 9 1020.6 1020.7 0.0
31/09:00am 6.3 - - - - N 9 15 5 8 1020.5 1020.6 5.4
31/08:30am 5.1 - - - - NW 6 7 3 4 1020.6 1020.7 5.4
31/08:00am 4.5 - - - - NNW 2 9 1 5 1020.5 1020.6 5.4
31/07:30am 4.2 - - - - CALM 0 0 0 0 1020.2 1020.3 5.4
31/07:00am 4.1 - - - - CALM 0 4 0 2 1020.2 1020.3 5.4
31/06:30am 4.1 - - - - N 4 6 2 3 1020.1 1020.2 5.4
31/06:00am 4.1 - - - - N 2 7 1 4 1019.9 1020.0 5.4
31/05:30am 3.7 - - - - CALM 0 0 0 0 1019.9 1020.0 5.4
31/05:00am 3.5 - - - - CALM 0 0 0 0 1020.0 1020.1 5.4
31/04:30am 3.7 - - - - CALM 0 0 0 0 1020.4 1020.5 5.4
31/04:00am 4.2 - - - - CALM 0 0 0 0 1020.2 1020.3 5.4
31/03:30am 4.2 - - - - NNW 2 6 1 3 1020.3 1020.4 5.4
31/03:00am 4.1 - - - - CALM 0 4 0 2 1020.3 1020.4 5.4
31/02:30am 4.2 - - - - CALM 0 0 0 0 1020.3 1020.4 5.4
31/02:00am 4.3 - - - - CALM 0 0 0 0 1020.2 1020.3 5.4
31/01:30am 4.8 - - - - WNW 7 9 4 5 1020.2 1020.3 5.4
31/01:00am 4.3 - - - - W 9 11 5 6 1020.4 1020.5 5.4
31/12:30am 4.1 - - - - NW 11 15 6 8 1020.3 1020.4 5.4
31/12:00am 4.5 - - - - NW 11 13 6 7 1020.1 1020.2 5.4
 
Date/Time
EST
Temp
°C
App
Temp
°C
Dew
Point
Rel
Hum
%
Delta-T
°C
Wind Press
QNH
hPa
Press
MSL
hPa
Rain
since 9 am
mm
Dir
 
Spd
km/h
Gust
km/h
Spd
kts
Gust
kts
30/11:30pm 5.0 - - - - WNW 6 9 3 5 1020.0 1020.1 5.4
30/11:00pm 5.2 - - - - NW 11 11 6 6 1019.7 1019.8 5.4
30/10:30pm 4.9 - - - - NW 11 13 6 7 1019.6 1019.7 5.4
30/10:00pm 6.5 - - - - W 6 9 3 5 1019.3 1019.4 5.4
30/09:30pm 6.5 - - - - CALM 0 0 0 0 1018.9 1019.0 5.4
30/09:00pm 7.3 - - - - SW 6 11 3 6 1018.6 1018.7 5.4
30/08:30pm 7.3 - - - - SW 7 11 4 6 1017.8 1017.9 5.4
30/08:00pm 7.9 - - - - SW 11 19 6 10 1017.7 1017.8 5.4
30/07:30pm 8.0 - - - - WSW 11 17 6 9 1016.9 1017.0 5.4
30/07:00pm 8.1 - - - - W 11 20 6 11 1016.4 1016.5 5.4
30/06:30pm 8.2 - - - - W 7 15 4 8 1015.7 1015.8 5.4

Other Formats:

Comma delimited format used in spreadsheet applications
http://www.bom.gov.au/fwo/IDV60801/IDV60801.95822.axf

JavaScript Object Notation format (JSON) in row-major order
http://www.bom.gov.au/fwo/IDV60801/IDV60801.95822.json